createdAt,value
2022-09-12T00:02:00.816Z,100628.25
2022-09-12T00:04:31.297Z,100622.84
2022-09-12T00:07:02.170Z,100626.00
2022-09-12T00:09:32.344Z,100628.00
2022-09-12T00:12:02.326Z,100622.94
2022-09-12T00:14:32.455Z,100628.19
2022-09-12T00:17:03.281Z,100623.97
2022-09-12T00:19:35.705Z,100619.75
2022-09-12T00:22:05.901Z,100636.03
2022-09-12T00:24:35.996Z,100644.13
2022-09-12T00:27:08.881Z,100632.63
2022-09-12T00:29:39.182Z,100632.38
2022-09-12T00:32:09.340Z,100622.41
2022-09-12T00:34:43.126Z,100627.81
2022-09-12T00:37:13.400Z,100630.25
2022-09-12T00:39:43.559Z,100631.91
2022-09-12T00:42:14.876Z,100629.78
2022-09-12T00:44:49.162Z,100633.06
2022-09-12T00:47:26.714Z,100627.19
2022-09-12T00:50:19.861Z,100630.78
2022-09-12T00:53:04.351Z,100624.06
2022-09-12T00:55:40.431Z,100618.44
2022-09-12T00:58:12.419Z,100626.31
2022-09-12T01:00:43.060Z,100624.16
2022-09-12T01:03:20.760Z,100626.38
2022-09-12T01:06:21.409Z,100627.53
2022-09-12T01:08:53.143Z,100634.44
2022-09-12T01:11:24.472Z,100631.25
2022-09-12T01:13:54.508Z,100636.22
2022-09-12T01:16:24.619Z,100635.75
2022-09-12T01:18:57.438Z,100632.69
2022-09-12T01:21:40.781Z,100629.81
2022-09-12T01:24:29.214Z,100629.41
2022-09-12T01:27:20.333Z,100630.88
2022-09-12T01:30:21.361Z,100635.88
2022-09-12T01:33:22.784Z,100639.22
2022-09-12T01:36:10.006Z,100639.59
2022-09-12T01:38:52.392Z,100644.03
2022-09-12T01:41:25.329Z,100658.19
2022-09-12T01:44:10.008Z,100638.50
2022-09-12T01:47:00.908Z,100640.00
2022-09-12T01:49:53.364Z,100640.66
2022-09-12T01:52:45.952Z,100646.13
2022-09-12T01:55:18.681Z,100644.06
2022-09-12T01:58:07.034Z,100638.72
2022-09-12T02:00:44.878Z,100640.63
2022-09-12T02:03:21.313Z,100643.66
2022-09-12T02:06:09.226Z,100637.00
2022-09-12T02:08:54.822Z,100635.41
2022-09-12T02:11:25.063Z,100634.19
2022-09-12T02:14:05.493Z,100628.00
2022-09-12T02:17:15.347Z,100620.50
2022-09-12T02:20:17.808Z,100619.25
2022-09-12T02:23:05.570Z,100622.03
2022-09-12T02:25:39.685Z,100628.56
2022-09-12T02:28:12.914Z,100621.03
2022-09-12T02:30:52.768Z,100625.44
2022-09-12T02:33:30.723Z,100618.44
2022-09-12T02:36:32.293Z,100622.00
2022-09-12T02:39:03.428Z,100619.34
2022-09-12T02:41:34.453Z,100608.81
2022-09-12T02:44:05.338Z,100605.59
2022-09-12T02:46:53.520Z,100604.00
2022-09-12T02:49:24.591Z,100599.41
2022-09-12T02:51:54.770Z,100606.78
2022-09-12T02:54:25.671Z,100601.44
2022-09-12T02:56:56.039Z,100597.38
2022-09-12T02:59:27.348Z,100593.59
2022-09-12T03:02:24.190Z,100588.75
2022-09-12T03:05:14.850Z,100592.28
2022-09-12T03:08:07.917Z,100589.63
2022-09-12T03:11:08.635Z,100591.56
2022-09-12T03:13:56.634Z,100580.75
2022-09-12T03:16:50.686Z,100581.03
2022-09-12T03:19:34.889Z,100584.84
2022-09-12T03:22:31.280Z,100580.56
2022-09-12T03:25:18.248Z,100583.25
2022-09-12T03:27:54.458Z,100571.34
2022-09-12T03:30:24.760Z,100567.03
2022-09-12T03:32:56.809Z,100567.06
2022-09-12T03:35:27.826Z,100561.91
2022-09-12T03:37:57.968Z,100567.38
2022-09-12T03:40:28.170Z,100559.28
2022-09-12T03:42:58.198Z,100561.72
2022-09-12T03:45:28.353Z,100562.28
2022-09-12T03:47:58.741Z,100561.75
2022-09-12T03:50:29.171Z,100557.41
2022-09-12T03:53:01.588Z,100561.25
2022-09-12T03:55:32.394Z,100550.13
2022-09-12T03:58:02.393Z,100555.81
2022-09-12T04:00:33.026Z,100548.78
2022-09-12T04:03:03.115Z,100549.06
2022-09-12T04:05:33.587Z,100541.19
2022-09-12T04:08:04.043Z,100552.06
2022-09-12T04:10:34.509Z,100545.00
2022-09-12T04:13:04.631Z,100544.47
2022-09-12T04:15:35.236Z,100535.81
2022-09-12T04:18:06.265Z,100532.28
2022-09-12T04:20:41.721Z,100542.59
2022-09-12T04:23:12.211Z,100535.25
2022-09-12T04:25:43.575Z,100536.91
2022-09-12T04:28:13.921Z,100530.16
2022-09-12T04:30:51.112Z,100532.28
2022-09-12T04:33:30.408Z,100530.41
2022-09-12T04:36:09.224Z,100528.28
2022-09-12T04:38:40.994Z,100529.09
2022-09-12T04:41:20.863Z,100524.19
2022-09-12T04:46:55.210Z,100528.28
2022-09-12T04:49:25.714Z,100526.38
2022-09-12T04:52:03.484Z,100516.06
2022-09-12T04:54:35.039Z,100503.03
2022-09-12T04:57:06.017Z,100518.50
2022-09-12T04:59:37.821Z,100511.44
2022-09-12T05:02:08.679Z,100504.09
2022-09-12T05:04:39.446Z,100504.94
2022-09-12T05:07:11.273Z,100507.06
2022-09-12T05:09:43.079Z,100498.41
2022-09-12T05:12:15.747Z,100497.31
2022-09-12T05:14:47.106Z,100495.13
2022-09-12T05:17:18.060Z,100502.22
2022-09-12T05:19:50.146Z,100488.06
2022-09-12T05:22:21.729Z,100492.69
2022-09-12T05:24:53.247Z,100485.88
2022-09-12T05:27:24.363Z,100485.34
2022-09-12T05:29:55.121Z,100477.47
2022-09-12T05:32:26.867Z,100484.53
2022-09-12T05:34:57.742Z,100476.09
2022-09-12T05:37:28.501Z,100477.16
2022-09-12T05:40:00.041Z,100474.44
2022-09-12T05:42:32.113Z,100466.84
2022-09-12T05:45:03.003Z,100470.66
2022-09-12T05:47:34.029Z,100471.72
2022-09-12T05:50:12.189Z,100454.63
2022-09-12T05:52:43.712Z,100459.78
2022-09-12T05:55:15.647Z,100466.31
2022-09-12T05:57:49.813Z,100458.44
2022-09-12T06:00:22.160Z,100452.72
2022-09-12T06:02:56.246Z,100447.00
2022-09-12T06:05:27.651Z,100445.38
2022-09-12T06:07:58.638Z,100444.84
2022-09-12T06:10:30.087Z,100450.00
2022-09-12T06:13:00.441Z,100444.28
2022-09-12T06:15:31.042Z,100451.34
2022-09-12T06:18:02.042Z,100445.09
2022-09-12T06:20:33.867Z,100443.69
2022-09-12T06:23:04.846Z,100437.44
2022-09-12T06:25:35.480Z,100431.19
2022-09-12T06:28:06.945Z,100434.16
2022-09-12T06:30:37.067Z,100437.41
2022-09-12T06:33:07.648Z,100434.41
2022-09-12T06:35:43.989Z,100440.09
2022-09-12T06:38:14.701Z,100430.56
2022-09-12T06:40:46.269Z,100425.94
2022-09-12T06:43:18.144Z,100427.03
2022-09-12T06:45:54.167Z,100415.59
2022-09-12T06:48:27.335Z,100423.19
2022-09-12T06:51:09.403Z,100424.78
2022-09-12T06:58:18.659Z,100418.25
2022-09-12T07:01:16.868Z,100407.91
2022-09-12T07:12:02.402Z,100412.22
2022-09-12T07:14:33.562Z,100413.28
2022-09-12T07:17:04.969Z,100409.19
2022-09-12T07:19:36.418Z,100414.31
2022-09-12T07:22:07.698Z,100399.59
2022-09-12T07:24:38.849Z,100406.13
2022-09-12T07:27:10.150Z,100410.97
2022-09-12T07:29:40.514Z,100411.81
2022-09-12T07:32:11.240Z,100413.41
2022-09-12T07:34:42.034Z,100403.06
2022-09-12T07:37:14.174Z,100400.59
2022-09-12T07:39:44.820Z,100401.66
2022-09-12T07:42:16.278Z,100405.69
2022-09-12T07:44:48.362Z,100408.72
2022-09-12T07:47:19.628Z,100399.41
2022-09-12T07:49:50.230Z,100411.34
2022-09-12T07:52:24.214Z,100409.97
2022-09-12T07:54:55.214Z,100410.78
2022-09-12T07:57:26.468Z,100409.63
2022-09-12T07:59:57.111Z,100409.09
2022-09-12T08:02:27.708Z,100402.56
2022-09-12T08:04:58.223Z,100409.63
2022-09-12T08:07:29.744Z,100420.50
2022-09-12T08:10:01.360Z,100411.81
2022-09-12T08:12:33.477Z,100415.88
2022-09-12T08:15:03.627Z,100414.25
2022-09-12T08:17:33.743Z,100412.88
2022-09-12T08:20:04.143Z,100417.50
2022-09-12T08:22:34.696Z,100420.78
2022-09-12T08:25:05.809Z,100410.22
2022-09-12T08:27:37.337Z,100418.38
2022-09-12T08:30:08.647Z,100416.75
2022-09-12T08:32:38.796Z,100414.00
2022-09-12T08:35:09.309Z,100410.75
2022-09-12T08:37:39.488Z,100418.09
2022-09-12T08:40:13.904Z,100412.94
2022-09-12T08:43:05.919Z,100416.75
2022-09-12T08:45:44.956Z,100408.88
2022-09-12T08:48:16.542Z,100411.34
2022-09-12T08:50:50.064Z,100409.19
2022-09-12T08:53:25.789Z,100411.38
2022-09-12T08:56:00.869Z,100409.53
2022-09-12T08:58:41.736Z,100413.91
2022-09-12T09:01:21.126Z,100409.06
2022-09-12T09:04:18.849Z,100411.50
2022-09-12T09:06:58.410Z,100411.56
2022-09-12T09:09:46.478Z,100417.03
2022-09-12T09:12:18.996Z,100414.88
2022-09-12T09:15:30.470Z,100420.06
2022-09-12T09:18:23.965Z,100414.94
2022-09-12T09:21:08.192Z,100424.75
2022-09-12T09:23:45.138Z,100424.75
2022-09-12T09:26:19.339Z,100423.69
2022-09-12T09:28:58.354Z,100419.09
2022-09-12T09:31:32.995Z,100419.41
2022-09-12T09:34:03.322Z,100413.19
2022-09-12T09:36:57.810Z,100427.06
2022-09-12T09:39:36.923Z,100429.78
2022-09-12T09:42:29.969Z,100425.19
2022-09-12T09:45:13.461Z,100423.88
2022-09-12T09:47:46.824Z,100424.16
2022-09-12T09:50:20.610Z,100433.69
2022-09-12T09:52:53.918Z,100442.94
2022-09-12T09:55:31.320Z,100427.19
2022-09-12T09:58:02.121Z,100434.53
2022-09-12T10:00:38.060Z,100434.25
2022-09-12T10:03:13.918Z,100431.56
2022-09-12T10:05:54.245Z,100433.22
2022-09-12T10:08:29.427Z,100434.84
2022-09-12T10:11:08.228Z,100442.75
2022-09-12T10:13:59.229Z,100438.13
2022-09-12T10:16:32.696Z,100443.56
2022-09-12T10:19:05.655Z,100441.66
2022-09-12T10:21:41.037Z,100450.63
2022-09-12T10:24:27.226Z,100447.13
2022-09-12T10:27:10.801Z,100451.72
2022-09-12T10:29:49.885Z,100453.06
2022-09-12T10:32:30.671Z,100457.16
2022-09-12T10:35:10.654Z,100461.72
2022-09-12T10:37:42.479Z,100459.03
2022-09-12T10:40:27.288Z,100448.44
2022-09-12T10:43:00.550Z,100456.06
2022-09-12T10:45:39.446Z,100460.38
2022-09-12T10:48:33.831Z,100464.72
2022-09-12T10:51:04.460Z,100462.53
2022-09-12T10:53:43.083Z,100463.59
2022-09-12T10:56:26.168Z,100456.78
2022-09-12T10:59:33.658Z,100457.03
2022-09-12T11:02:17.602Z,100471.91
2022-09-12T11:05:20.671Z,100461.59
2022-09-12T11:08:18.609Z,100471.59
2022-09-12T11:10:59.452Z,100478.09
2022-09-12T11:14:06.097Z,100480.78
2022-09-12T11:16:48.966Z,100488.63
2022-09-12T11:19:31.047Z,100495.63
2022-09-12T11:22:20.923Z,100507.03
2022-09-12T11:25:13.456Z,100506.16
2022-09-12T11:28:04.542Z,100512.63
2022-09-12T11:31:00.833Z,100509.91
2022-09-12T11:33:56.504Z,100525.28
2022-09-12T11:36:30.467Z,100531.47
2022-09-12T11:39:17.525Z,100533.06
2022-09-12T11:41:52.863Z,100531.13
2022-09-12T11:44:25.542Z,100548.22
2022-09-12T11:46:55.973Z,100554.69
2022-09-12T11:49:35.267Z,100556.31
2022-09-12T11:52:21.646Z,100553.28
2022-09-12T11:54:54.670Z,100569.25
2022-09-12T11:57:43.440Z,100564.59
2022-09-12T12:00:35.145Z,100573.78
2022-09-12T12:03:19.773Z,100583.00
2022-09-12T12:05:58.270Z,100583.25
2022-09-12T12:08:32.282Z,100598.94
2022-09-12T12:11:05.229Z,100595.91
2022-09-12T12:13:46.927Z,100600.25
2022-09-12T12:16:21.073Z,100612.72
2022-09-12T12:18:58.807Z,100608.91
2022-09-12T12:21:33.017Z,100617.03
2022-09-12T12:24:08.050Z,100619.75
2022-09-12T12:26:44.488Z,100622.75
2022-09-12T12:29:38.297Z,100630.28
2022-09-12T12:32:13.353Z,100635.06
2022-09-12T12:34:46.761Z,100643.97
2022-09-12T12:37:23.700Z,100644.78
2022-09-12T12:40:02.273Z,100645.59
2022-09-12T12:42:36.635Z,100644.78
2022-09-12T12:45:24.150Z,100644.78
2022-09-12T12:48:21.990Z,100640.69
2022-09-12T12:51:31.215Z,100659.38
2022-09-12T12:54:12.938Z,100655.06
2022-09-12T12:56:46.805Z,100663.22
2022-09-12T12:59:25.873Z,100660.53
2022-09-12T13:02:04.199Z,100663.22
2022-09-12T13:04:37.005Z,100677.56
2022-09-12T13:07:13.205Z,100666.75
2022-09-12T13:09:54.392Z,100672.97
2022-09-12T13:12:38.978Z,100677.81
2022-09-12T13:15:37.783Z,100671.34
2022-09-12T13:18:15.973Z,100675.38
2022-09-12T13:21:10.990Z,100674.81
2022-09-12T13:23:42.636Z,100677.22
2022-09-12T13:26:44.210Z,100681.25
2022-09-12T13:29:23.070Z,100679.84
2022-09-12T13:32:04.853Z,100681.19
2022-09-12T13:34:54.048Z,100688.97
2022-09-12T13:37:33.502Z,100682.97
2022-09-12T13:40:35.850Z,100689.47
2022-09-12T13:43:17.024Z,100682.09
2022-09-12T13:45:49.847Z,100681.78
2022-09-12T13:48:25.887Z,100688.53
2022-09-12T13:50:59.669Z,100692.28
2022-09-12T13:53:42.053Z,100687.06
2022-09-12T13:56:19.647Z,100691.03
2022-09-12T13:59:00.950Z,100695.81
2022-09-12T14:01:46.039Z,100709.56
2022-09-12T14:04:36.558Z,100702.53
2022-09-12T14:07:14.522Z,100708.19
2022-09-12T14:09:48.492Z,100714.66
2022-09-12T14:12:30.971Z,100715.97
2022-09-12T14:15:02.131Z,100719.19
2022-09-12T14:17:38.675Z,100720.25
2022-09-12T14:20:16.204Z,100718.88
2022-09-12T14:22:51.132Z,100719.69
2022-09-12T14:25:27.373Z,100725.09
2022-09-12T14:27:59.982Z,100731.06
2022-09-12T14:30:33.006Z,100734.84
2022-09-12T14:33:13.840Z,100733.19
2022-09-12T14:35:51.486Z,100739.09
2022-09-12T14:38:37.790Z,100743.69
2022-09-12T14:41:15.131Z,100745.59
2022-09-12T14:43:55.134Z,100756.88
2022-09-12T14:46:43.065Z,100745.25
2022-09-12T14:49:23.112Z,100755.47
2022-09-12T14:51:53.909Z,100758.44
2022-09-12T14:54:30.843Z,100763.84
2022-09-12T14:57:05.836Z,100768.44
2022-09-12T14:59:44.298Z,100770.31
2022-09-12T15:02:27.187Z,100774.66
2022-09-12T15:05:23.038Z,100768.44
2022-09-12T15:07:58.412Z,100770.31
2022-09-12T15:10:39.646Z,100773.03
2022-09-12T15:13:18.058Z,100777.38
2022-09-12T15:16:02.962Z,100776.28
2022-09-12T15:18:33.560Z,100774.66
2022-09-12T15:21:07.435Z,100775.47
2022-09-12T15:23:47.623Z,100780.06
2022-09-12T15:26:24.190Z,100780.66
2022-09-12T15:28:55.089Z,100779.25
2022-09-12T15:31:32.396Z,100775.47
2022-09-12T15:34:05.203Z,100776.28
2022-09-12T15:36:35.717Z,100781.69
2022-09-12T15:39:06.404Z,100778.44
2022-09-12T15:41:39.722Z,100780.88
2022-09-12T15:44:15.707Z,100780.31
2022-09-12T15:46:46.506Z,100785.16
2022-09-12T15:49:17.005Z,100776.22
2022-09-12T15:51:47.291Z,100781.03
2022-09-12T15:54:23.865Z,100787.22
2022-09-12T15:56:54.476Z,100789.59
2022-09-12T15:59:25.119Z,100785.03
2022-09-12T16:01:55.709Z,100787.41
2022-09-12T16:04:29.965Z,100793.63
2022-09-12T16:07:00.861Z,100798.47
2022-09-12T16:09:31.826Z,100796.81
2022-09-12T16:12:03.006Z,100795.44
2022-09-12T16:14:36.375Z,100796.50
2022-09-12T16:17:09.725Z,100792.88
2022-09-12T16:19:40.674Z,100799.44
2022-09-12T16:22:11.335Z,100807.22
2022-09-12T16:24:41.812Z,100803.94
2022-09-12T16:27:13.724Z,100799.84
2022-09-12T16:29:44.252Z,100800.09
2022-09-12T16:32:14.523Z,100804.91
2022-09-12T16:34:44.845Z,100807.88
2022-09-12T16:37:17.683Z,100795.91
2022-09-12T16:39:47.677Z,100799.16
2022-09-12T16:42:21.936Z,100804.00
2022-09-12T16:44:52.023Z,100809.63
2022-09-12T16:47:22.382Z,100806.38
2022-09-12T16:49:52.675Z,100803.56
2022-09-12T16:52:22.719Z,100803.00
2022-09-12T16:54:52.801Z,100811.81
2022-09-12T16:57:22.974Z,100809.06
2022-09-12T16:59:54.526Z,100812.22
2022-09-12T17:02:25.550Z,100808.44
2022-09-12T17:04:55.802Z,100801.91
2022-09-12T17:07:25.821Z,100804.03
2022-09-12T17:09:55.898Z,100804.75
2022-09-12T17:12:25.989Z,100809.56
2022-09-12T17:14:55.961Z,100801.09
2022-09-12T17:17:26.012Z,100798.06
2022-09-12T17:19:56.039Z,100808.84
2022-09-12T17:22:26.034Z,100815.56
2022-09-12T17:24:55.989Z,100812.88
2022-09-12T17:27:26.541Z,100816.84
2022-09-12T17:29:56.637Z,100828.34
2022-09-12T17:32:26.682Z,100812.66
2022-09-12T17:34:56.675Z,100820.41
2022-09-12T17:37:27.409Z,100823.34
2022-09-12T17:39:59.146Z,100826.28
2022-09-12T17:42:29.854Z,100822.44
2022-09-12T17:45:01.527Z,100818.31
2022-09-12T17:47:32.684Z,100828.53
2022-09-12T17:50:30.017Z,100824.41
2022-09-12T17:52:54.272Z,100829.47
2022-09-12T17:55:24.675Z,100826.44
2022-09-12T17:57:54.649Z,100830.44
2022-09-12T18:00:44.438Z,100830.66
2022-09-12T18:03:15.574Z,100831.72
2022-09-12T18:05:55.731Z,100840.31
2022-09-12T18:08:27.413Z,100841.56
2022-09-12T18:11:06.948Z,100842.88
2022-09-12T18:13:39.809Z,100839.00
2022-09-12T18:16:12.293Z,100841.13
2022-09-12T18:18:43.117Z,100840.31
2022-09-12T18:21:15.172Z,100843.22
2022-09-12T18:23:45.792Z,100838.91
2022-09-12T18:26:16.331Z,100843.69
2022-09-12T18:28:47.361Z,100844.53
2022-09-12T18:31:20.637Z,100845.22
2022-09-12T18:33:51.664Z,100839.25
2022-09-12T18:36:23.095Z,100844.66
2022-09-12T18:38:53.453Z,100843.81
2022-09-12T18:41:27.610Z,100840.50
2022-09-12T18:44:02.497Z,100840.50
2022-09-12T18:46:35.441Z,100843.09
2022-09-12T18:49:06.881Z,100841.81
2022-09-12T18:51:41.318Z,100834.75
2022-09-12T18:54:15.787Z,100842.63
2022-09-12T18:56:47.098Z,100840.63
2022-09-12T18:59:17.858Z,100846.84
2022-09-12T19:01:48.602Z,100853.50
2022-09-12T19:04:19.205Z,100852.94
2022-09-12T19:06:50.657Z,100852.34
2022-09-12T19:09:22.363Z,100867.34
2022-09-12T19:11:53.918Z,100865.34
2022-09-12T19:14:27.396Z,100866.16
2022-09-12T19:16:58.288Z,100868.75
2022-09-12T19:19:28.594Z,100863.25
2022-09-12T19:21:58.835Z,100867.19
2022-09-12T19:24:29.008Z,100865.22
2022-09-12T19:26:59.742Z,100866.50
2022-09-12T19:29:29.773Z,100869.63
2022-09-12T19:31:59.757Z,100868.25
2022-09-12T19:34:30.181Z,100862.28
2022-09-12T19:37:00.814Z,100857.78
2022-09-12T19:39:30.987Z,100865.66
2022-09-12T19:42:01.247Z,100864.25
2022-09-12T19:44:32.366Z,100864.91
2022-09-12T19:47:02.588Z,100867.84
2022-09-12T19:49:32.689Z,100863.75
2022-09-12T19:52:02.794Z,100871.59
2022-09-12T19:54:32.758Z,100869.94
2022-09-12T19:57:02.753Z,100875.56
2022-09-12T19:59:32.782Z,100875.56
2022-09-12T20:02:02.959Z,100873.91
2022-09-12T20:04:36.520Z,100874.16
2022-09-12T20:07:06.939Z,100871.91
2022-09-12T20:09:37.568Z,100868.59
2022-09-12T20:12:07.925Z,100871.75
2022-09-12T20:14:38.445Z,100871.63
2022-09-12T20:17:09.351Z,100880.13
2022-09-12T20:19:40.098Z,100874.16
2022-09-12T20:22:10.409Z,100878.38
2022-09-12T20:24:40.375Z,100888.56
2022-09-12T20:27:10.721Z,100887.72
2022-09-12T20:29:40.706Z,100895.19
2022-09-12T20:32:11.560Z,100900.81
2022-09-12T20:34:41.668Z,100900.22
2022-09-12T20:37:11.695Z,100900.06
2022-09-12T20:39:42.121Z,100907.56
2022-09-12T20:42:12.349Z,100908.59
2022-09-12T20:44:42.569Z,100921.25
2022-09-12T20:47:12.638Z,100928.34
2022-09-12T20:49:42.583Z,100930.69
2022-09-12T20:52:11.952Z,100939.34
2022-09-12T20:54:41.931Z,100937.09
2022-09-12T20:57:11.901Z,100939.19
2022-09-12T20:59:43.833Z,100941.28
2022-09-12T21:02:18.659Z,100947.13
2022-09-12T21:04:49.385Z,100943.00
2022-09-12T21:07:19.748Z,100945.09
2022-09-12T21:09:49.794Z,100941.78
2022-09-12T21:12:19.775Z,100945.72
2022-09-12T21:14:49.779Z,100950.72
2022-09-12T21:17:19.683Z,100951.75
2022-09-12T21:19:49.615Z,100954.44
2022-09-12T21:22:22.896Z,100959.00
2022-09-12T21:24:52.961Z,100954.06
2022-09-12T21:27:22.913Z,100960.47
2022-09-12T21:29:53.580Z,100967.34
2022-09-12T21:32:24.968Z,100968.25
2022-09-12T21:34:55.001Z,100978.78
2022-09-12T21:37:24.974Z,100977.97
2022-09-12T21:39:55.433Z,100980.44
2022-09-12T21:42:25.486Z,100988.28
2022-09-12T21:44:55.937Z,100988.28
2022-09-12T21:47:26.001Z,100986.41
2022-09-12T21:49:56.639Z,100989.94
2022-09-12T21:52:26.611Z,100988.28
2022-09-12T21:54:57.795Z,100996.94
2022-09-12T21:57:27.778Z,101001.31
2022-09-12T21:59:57.142Z,101002.50
2022-09-12T22:02:30.942Z,100998.16
2022-09-12T22:05:01.195Z,101000.84
2022-09-12T22:07:31.644Z,101004.75
2022-09-12T22:10:01.929Z,101010.13
2022-09-12T22:12:32.611Z,101009.91
2022-09-12T22:15:17.446Z,101015.09
2022-09-12T22:17:47.777Z,101014.03
2022-09-12T22:20:18.257Z,101025.38
2022-09-12T22:23:06.106Z,101028.66
2022-09-12T22:25:36.448Z,101025.75
2022-09-12T22:28:06.515Z,101039.44
2022-09-12T22:30:36.716Z,101040.50
2022-09-12T22:33:06.825Z,101042.97
2022-09-12T22:35:37.607Z,101045.88
2022-09-12T22:38:07.921Z,101051.88
2022-09-12T22:40:38.218Z,101045.44
2022-09-12T22:43:09.199Z,101045.66
2022-09-12T22:45:41.885Z,101058.44
2022-09-12T22:48:12.693Z,101058.44
2022-09-12T22:50:43.633Z,101057.19
2022-09-12T22:53:13.931Z,101061.28
2022-09-12T22:55:48.021Z,101062.94
2022-09-12T22:58:18.382Z,101063.34
2022-09-12T23:00:51.439Z,101061.84
2022-09-12T23:03:22.789Z,101075.66
2022-09-12T23:05:53.819Z,101074.44
2022-09-12T23:08:24.054Z,101077.72
2022-09-12T23:11:01.186Z,101077.28
2022-09-12T23:13:32.222Z,101083.03
2022-09-12T23:16:03.978Z,101083.63
2022-09-12T23:18:39.314Z,101091.06
2022-09-12T23:21:12.519Z,101088.75
2022-09-12T23:23:44.101Z,101092.03
2022-09-12T23:26:17.141Z,101089.50
2022-09-12T23:29:02.469Z,101098.19
2022-09-12T23:31:35.261Z,101096.69
2022-09-12T23:34:07.550Z,101098.13
2022-09-12T23:36:38.271Z,101106.59
2022-09-12T23:39:08.652Z,101105.09
2022-09-12T23:41:39.457Z,101114.13
2022-09-12T23:44:10.140Z,101111.00
2022-09-12T23:46:41.468Z,101114.88
2022-09-12T23:49:12.039Z,101112.34
2022-09-12T23:51:42.642Z,101124.34
2022-09-12T23:54:12.571Z,101123.41
2022-09-12T23:56:42.572Z,101130.00
2022-09-12T23:59:12.544Z,101134.72
